Time;durP1;ratioP1;P1;durP2;ratioP2;P2;SDS_P1;SDS_P2;PMS_P1;PMS_P2;Temp;Humidity;BMP_temperature;BMP_pressure;BME280_temperature;BME280_humidity;BME280_pressure;Samples;Min_cycle;Max_cycle;Signal;HPM_P1;HPM_P2
2023/09/22 00:00:39;;;;;;;0.80;0.80;;;;;;;;;;5114925;28;20435;-63
2023/09/22 00:03:08;;;;;;;0.70;0.70;;;;;;;;;;5114371;28;20928;-63
2023/09/22 00:05:35;;;;;;;0.70;0.70;;;;;;;;;;5115135;28;20467;-63
2023/09/22 00:08:03;;;;;;;0.70;0.70;;;;;;;;;;5114295;28;20438;-63
2023/09/22 00:10:30;;;;;;;0.80;0.80;;;;;;;;;;5113294;28;20444;-63
2023/09/22 00:12:57;;;;;;;0.70;0.70;;;;;;;;;;5114382;28;20445;-63
2023/09/22 00:15:25;;;;;;;0.70;0.70;;;;;;;;;;5114839;28;20619;-63
2023/09/22 00:17:53;;;;;;;0.80;0.80;;;;;;;;;;5114459;28;20519;-63
2023/09/22 00:20:21;;;;;;;0.70;0.70;;;;;;;;;;5114313;28;20466;-63
2023/09/22 00:22:48;;;;;;;0.70;0.70;;;;;;;;;;5114049;28;20450;-63
2023/09/22 00:25:16;;;;;;;0.70;0.70;;;;;;;;;;5114518;28;20994;-63
2023/09/22 00:27:43;;;;;;;0.70;0.70;;;;;;;;;;5114364;28;20457;-63
2023/09/22 00:30:10;;;;;;;0.80;0.80;;;;;;;;;;5114415;28;20436;-63
2023/09/22 00:32:38;;;;;;;0.80;0.80;;;;;;;;;;5114231;28;20434;-63
2023/09/22 00:35:09;;;;;;;0.70;0.70;;;;;;;;;;5113894;28;20485;-63
2023/09/22 00:37:36;;;;;;;0.70;0.70;;;;;;;;;;5114350;28;20457;-62
2023/09/22 00:40:04;;;;;;;0.77;0.77;;;;;;;;;;5113958;28;20459;-62
2023/09/22 00:42:31;;;;;;;0.80;0.80;;;;;;;;;;5113734;28;20533;-63
2023/09/22 00:44:58;;;;;;;0.70;0.70;;;;;;;;;;5114033;28;20519;-63
2023/09/22 00:47:26;;;;;;;0.70;0.70;;;;;;;;;;5113938;28;20436;-62
2023/09/22 00:49:54;;;;;;;0.70;0.70;;;;;;;;;;5113932;28;20449;-63
2023/09/22 00:52:23;;;;;;;0.70;0.70;;;;;;;;;;5113516;28;20447;-63
2023/09/22 00:54:50;;;;;;;0.80;0.80;;;;;;;;;;5113641;28;20482;-63
2023/09/22 00:57:18;;;;;;;0.70;0.70;;;;;;;;;;5114024;28;20494;-63
2023/09/22 00:59:46;;;;;;;0.80;0.80;;;;;;;;;;5113694;28;20446;-63
2023/09/22 01:02:13;;;;;;;0.80;0.80;;;;;;;;;;5113585;28;20532;-63
2023/09/22 01:04:40;;;;;;;0.80;0.80;;;;;;;;;;5114018;28;20801;-63
2023/09/22 01:07:07;;;;;;;0.70;0.70;;;;;;;;;;5113217;28;20456;-63
2023/09/22 01:09:37;;;;;;;0.70;0.70;;;;;;;;;;5113509;28;20514;-63
2023/09/22 01:12:05;;;;;;;0.80;0.80;;;;;;;;;;5113488;28;20424;-63
2023/09/22 01:14:32;;;;;;;0.80;0.80;;;;;;;;;;5113848;28;20563;-63
2023/09/22 01:16:59;;;;;;;0.70;0.70;;;;;;;;;;5113514;28;20529;-63
2023/09/22 01:19:26;;;;;;;0.80;0.80;;;;;;;;;;5113194;28;20538;-62
2023/09/22 01:21:55;;;;;;;0.80;0.80;;;;;;;;;;5112815;28;20449;-63
2023/09/22 01:24:22;;;;;;;0.80;0.80;;;;;;;;;;5113252;28;20500;-63
2023/09/22 01:26:51;;;;;;;0.70;0.70;;;;;;;;;;5112902;28;20462;-63
2023/09/22 01:29:19;;;;;;;0.80;0.80;;;;;;;;;;5113998;28;20441;-62
2023/09/22 01:31:46;;;;;;;0.80;0.80;;;;;;;;;;5112938;28;20536;-62
2023/09/22 01:34:15;;;;;;;0.70;0.70;;;;;;;;;;5112984;28;20832;-62
2023/09/22 01:36:43;;;;;;;0.80;0.80;;;;;;;;;;5113183;28;20441;-63
2023/09/22 01:39:16;;;;;;;0.70;0.70;;;;;;;;;;5113262;28;20429;-62
2023/09/22 01:41:43;;;;;;;0.70;0.70;;;;;;;;;;5113452;28;20429;-62
2023/09/22 01:44:10;;;;;;;0.70;0.70;;;;;;;;;;5112840;28;20540;-62
2023/09/22 01:46:37;;;;;;;0.80;0.80;;;;;;;;;;5112781;28;20435;-63
2023/09/22 01:49:05;;;;;;;0.70;0.70;;;;;;;;;;5113594;28;20451;-62
2023/09/22 01:51:32;;;;;;;0.70;0.70;;;;;;;;;;5112988;28;20533;-62
2023/09/22 01:53:59;;;;;;;0.70;0.70;;;;;;;;;;5113416;28;20800;-62
2023/09/22 01:56:28;;;;;;;0.70;0.70;;;;;;;;;;5113351;28;20528;-62
2023/09/22 01:58:55;;;;;;;0.70;0.70;;;;;;;;;;5113095;28;20440;-62
2023/09/22 02:01:23;;;;;;;0.70;0.70;;;;;;;;;;5112623;28;20445;-62
2023/09/22 02:03:51;;;;;;;0.70;0.70;;;;;;;;;;5113045;28;20447;-62
2023/09/22 02:06:18;;;;;;;0.80;0.80;;;;;;;;;;5112910;28;20445;-62
2023/09/22 02:08:46;;;;;;;0.80;0.80;;;;;;;;;;5112932;28;20437;-62
2023/09/22 02:11:13;;;;;;;0.80;0.80;;;;;;;;;;5112820;28;20851;-62
2023/09/22 02:13:41;;;;;;;0.70;0.70;;;;;;;;;;5112860;28;20438;-62
2023/09/22 02:16:08;;;;;;;0.80;0.80;;;;;;;;;;5112498;28;20448;-62
2023/09/22 02:18:36;;;;;;;0.80;0.80;;;;;;;;;;5112923;28;20791;-62
2023/09/22 02:21:05;;;;;;;0.70;0.70;;;;;;;;;;5112796;28;20441;-62
2023/09/22 02:23:33;;;;;;;0.80;0.80;;;;;;;;;;5113028;28;20524;-62
2023/09/22 02:26:06;;;;;;;0.80;0.80;;;;;;;;;;5113271;28;20560;-63
2023/09/22 02:28:33;;;;;;;0.70;0.70;;;;;;;;;;5113246;28;20524;-62
2023/09/22 02:31:02;;;;;;;0.80;0.80;;;;;;;;;;5112883;28;20470;-62
2023/09/22 02:33:30;;;;;;;0.70;0.70;;;;;;;;;;5112536;28;20767;-62
2023/09/22 02:35:59;;;;;;;0.80;0.80;;;;;;;;;;5117125;28;20477;-62
2023/09/22 02:38:26;;;;;;;0.70;0.70;;;;;;;;;;5116331;28;20447;-62
2023/09/22 02:40:53;;;;;;;0.70;0.70;;;;;;;;;;5116093;28;20444;-62
2023/09/22 02:43:20;;;;;;;0.80;0.80;;;;;;;;;;5116266;28;20434;-63
2023/09/22 02:45:48;;;;;;;0.70;0.70;;;;;;;;;;5116314;28;20524;-62
2023/09/22 02:48:16;;;;;;;0.70;0.70;;;;;;;;;;5116162;28;20448;-62
2023/09/22 02:50:45;;;;;;;0.70;0.70;;;;;;;;;;5116941;28;20779;-62
2023/09/22 02:53:12;;;;;;;0.70;0.70;;;;;;;;;;5115716;28;20445;-62
2023/09/22 02:55:39;;;;;;;0.70;0.70;;;;;;;;;;5115779;28;20477;-62
2023/09/22 02:58:08;;;;;;;0.80;0.80;;;;;;;;;;5116010;28;20435;-62
2023/09/22 03:00:36;;;;;;;0.80;0.80;;;;;;;;;;5115945;28;20456;-62
2023/09/22 03:03:03;;;;;;;0.90;0.90;;;;;;;;;;5115901;28;20865;-62
2023/09/22 03:05:33;;;;;;;0.70;0.70;;;;;;;;;;5115726;28;20456;-62
2023/09/22 03:08:00;;;;;;;0.70;0.70;;;;;;;;;;5115526;28;20513;-62
2023/09/22 03:10:27;;;;;;;0.80;0.80;;;;;;;;;;5115695;28;20524;-62
2023/09/22 03:12:54;;;;;;;0.80;0.80;;;;;;;;;;5115762;28;20432;-62
2023/09/22 03:15:22;;;;;;;0.80;0.80;;;;;;;;;;5115256;28;20487;-62
2023/09/22 03:17:49;;;;;;;0.80;0.80;;;;;;;;;;5115775;28;20465;-62
2023/09/22 03:20:17;;;;;;;0.80;0.80;;;;;;;;;;5115875;28;20449;-62
2023/09/22 03:22:46;;;;;;;0.70;0.70;;;;;;;;;;5115395;28;20524;-62
2023/09/22 03:25:13;;;;;;;0.70;0.70;;;;;;;;;;5115068;28;20560;-62
2023/09/22 03:27:42;;;;;;;0.70;0.70;;;;;;;;;;5114971;28;20461;-62
2023/09/22 03:30:10;;;;;;;0.70;0.70;;;;;;;;;;5115687;28;20440;-62
2023/09/22 03:32:39;;;;;;;0.80;0.80;;;;;;;;;;5115821;28;20529;-62
2023/09/22 03:35:06;;;;;;;0.70;0.70;;;;;;;;;;5114915;28;20500;-62
2023/09/22 03:37:34;;;;;;;0.70;0.70;;;;;;;;;;5115447;28;20440;-62
2023/09/22 03:40:09;;;;;;;0.80;0.80;;;;;;;;;;5114928;28;20438;-70
2023/09/22 03:42:36;;;;;;;0.77;0.77;;;;;;;;;;5114985;28;20429;-62
2023/09/22 03:45:03;;;;;;;0.80;0.80;;;;;;;;;;5115052;28;20438;-62
2023/09/22 03:47:32;;;;;;;0.70;0.70;;;;;;;;;;5114722;28;20555;-62
2023/09/22 03:50:00;;;;;;;0.80;0.80;;;;;;;;;;5115021;28;20495;-62
2023/09/22 03:52:28;;;;;;;0.70;0.70;;;;;;;;;;5112048;28;20459;-62
2023/09/22 03:54:55;;;;;;;0.80;0.80;;;;;;;;;;5113062;28;20532;-63
2023/09/22 03:57:24;;;;;;;0.80;0.80;;;;;;;;;;5113372;28;20804;-62
2023/09/22 03:59:51;;;;;;;0.70;0.70;;;;;;;;;;5113208;28;20926;-62
2023/09/22 04:02:20;;;;;;;0.80;0.80;;;;;;;;;;5113608;28;20927;-62
2023/09/22 04:04:47;;;;;;;0.80;0.80;;;;;;;;;;5113517;28;20515;-62
2023/09/22 04:07:15;;;;;;;0.80;0.80;;;;;;;;;;5113568;28;20444;-62
2023/09/22 04:09:44;;;;;;;0.70;0.70;;;;;;;;;;5113946;28;20434;-62
2023/09/22 04:12:11;;;;;;;0.70;0.70;;;;;;;;;;5114029;28;20956;-62
2023/09/22 04:14:40;;;;;;;0.80;0.80;;;;;;;;;;5113622;28;20988;-62
2023/09/22 04:17:08;;;;;;;0.80;0.80;;;;;;;;;;5113791;28;20964;-62
2023/09/22 04:19:36;;;;;;;0.80;0.80;;;;;;;;;;5113589;28;20445;-62
2023/09/22 04:22:03;;;;;;;0.80;0.80;;;;;;;;;;5113595;28;20471;-62
2023/09/22 04:24:32;;;;;;;0.70;0.70;;;;;;;;;;5119762;27;20471;-62
2023/09/22 04:27:06;;;;;;;1.00;1.00;;;;;;;;;;5134568;27;20463;-62
2023/09/22 04:29:35;;;;;;;0.80;0.80;;;;;;;;;;5134823;27;20428;-62
2023/09/22 04:32:04;;;;;;;0.80;0.80;;;;;;;;;;5134592;27;20433;-62
2023/09/22 04:34:32;;;;;;;0.80;0.80;;;;;;;;;;5133589;27;20441;-62
2023/09/22 04:36:59;;;;;;;0.77;0.77;;;;;;;;;;5134508;27;20855;-62
2023/09/22 04:39:26;;;;;;;0.70;0.70;;;;;;;;;;5134524;27;20534;-62
2023/09/22 04:41:53;;;;;;;0.70;0.70;;;;;;;;;;5134115;27;20826;-62
2023/09/22 04:44:21;;;;;;;0.80;0.80;;;;;;;;;;5133533;27;20444;-62
2023/09/22 04:46:49;;;;;;;0.80;0.80;;;;;;;;;;5133952;27;20524;-61
2023/09/22 04:49:18;;;;;;;0.70;0.70;;;;;;;;;;5134135;27;20458;-65
2023/09/22 04:51:45;;;;;;;0.80;0.80;;;;;;;;;;5133144;27;20524;-63
2023/09/22 04:54:12;;;;;;;0.70;0.70;;;;;;;;;;5132653;27;20816;-63
2023/09/22 04:56:40;;;;;;;0.70;0.70;;;;;;;;;;5133186;27;20473;-63
2023/09/22 04:59:09;;;;;;;0.70;0.70;;;;;;;;;;5133222;27;20532;-63
2023/09/22 05:01:37;;;;;;;0.80;0.80;;;;;;;;;;5133071;27;20440;-63
2023/09/22 05:04:04;;;;;;;0.70;0.70;;;;;;;;;;5132906;27;20449;-62
2023/09/22 05:06:33;;;;;;;0.70;0.70;;;;;;;;;;5133669;27;20440;-62
2023/09/22 05:09:00;;;;;;;0.90;0.90;;;;;;;;;;5133623;27;20432;-62
2023/09/22 05:11:27;;;;;;;0.80;0.80;;;;;;;;;;5133165;27;20965;-62
2023/09/22 05:13:55;;;;;;;0.80;0.80;;;;;;;;;;5133088;27;20436;-62
2023/09/22 05:16:22;;;;;;;0.90;0.90;;;;;;;;;;5133638;27;20893;-62
2023/09/22 05:18:49;;;;;;;0.80;0.80;;;;;;;;;;5133685;27;20463;-62
2023/09/22 05:21:17;;;;;;;0.80;0.80;;;;;;;;;;5133989;27;20446;-62
2023/09/22 05:23:46;;;;;;;0.73;0.73;;;;;;;;;;5133500;27;20512;-62
2023/09/22 05:26:14;;;;;;;0.70;0.70;;;;;;;;;;5133626;27;20971;-62
2023/09/22 05:28:41;;;;;;;0.70;0.70;;;;;;;;;;5133737;27;20515;-62
2023/09/22 05:31:09;;;;;;;0.70;0.70;;;;;;;;;;5133380;28;20455;-62
2023/09/22 05:33:36;;;;;;;0.80;0.80;;;;;;;;;;5133427;28;20456;-62
2023/09/22 05:36:05;;;;;;;0.80;0.80;;;;;;;;;;5133855;28;20570;-62
2023/09/22 05:38:32;;;;;;;0.80;0.80;;;;;;;;;;5134078;28;20784;-62
2023/09/22 05:41:01;;;;;;;0.87;0.87;;;;;;;;;;5133476;28;20730;-62
2023/09/22 05:43:31;;;;;;;0.80;0.80;;;;;;;;;;5133947;28;20527;-63
2023/09/22 05:45:58;;;;;;;0.90;0.90;;;;;;;;;;5133222;28;20940;-62
2023/09/22 05:48:25;;;;;;;0.73;0.73;;;;;;;;;;5133614;28;20439;-62
2023/09/22 05:50:56;;;;;;;0.70;0.70;;;;;;;;;;5133405;28;20443;-62
2023/09/22 05:53:25;;;;;;;0.70;0.70;;;;;;;;;;5133357;28;20455;-62
2023/09/22 05:55:52;;;;;;;0.70;0.70;;;;;;;;;;5133252;28;20480;-62
2023/09/22 05:58:20;;;;;;;0.70;0.70;;;;;;;;;;5133259;28;20437;-62
2023/09/22 06:00:47;;;;;;;0.80;0.80;;;;;;;;;;5133444;28;20459;-62
2023/09/22 06:03:15;;;;;;;0.70;0.70;;;;;;;;;;5134022;28;20436;-62
2023/09/22 06:05:42;;;;;;;0.80;0.80;;;;;;;;;;5133817;28;20527;-62
2023/09/22 06:08:09;;;;;;;0.70;0.70;;;;;;;;;;5133624;27;20850;-62
2023/09/22 06:10:36;;;;;;;0.70;0.70;;;;;;;;;;5136970;27;20467;-62
2023/09/22 06:13:03;;;;;;;0.70;0.70;;;;;;;;;;5138181;27;20527;-62
2023/09/22 06:15:33;;;;;;;0.70;0.70;;;;;;;;;;5137378;27;20471;-62
2023/09/22 06:18:00;;;;;;;0.80;0.80;;;;;;;;;;5137493;27;20436;-62
2023/09/22 06:20:27;;;;;;;0.80;0.80;;;;;;;;;;5137127;27;20447;-62
2023/09/22 06:22:55;;;;;;;0.80;0.80;;;;;;;;;;5137135;27;20909;-62
2023/09/22 06:25:22;;;;;;;0.70;0.70;;;;;;;;;;5136925;27;20479;-62
2023/09/22 06:27:52;;;;;;;0.70;0.70;;;;;;;;;;5137001;27;20439;-63
2023/09/22 06:30:19;;;;;;;0.80;0.80;;;;;;;;;;5137280;27;20613;-62
2023/09/22 06:32:47;;;;;;;0.83;0.83;;;;;;;;;;5137074;27;20929;-62
2023/09/22 06:35:15;;;;;;;0.70;0.70;;;;;;;;;;5137059;27;20522;-62
2023/09/22 06:37:42;;;;;;;0.80;0.80;;;;;;;;;;5136921;27;20514;-62
2023/09/22 06:40:12;;;;;;;0.70;0.70;;;;;;;;;;5137067;27;20488;-62
2023/09/22 06:42:41;;;;;;;0.70;0.70;;;;;;;;;;5136817;27;20424;-62
2023/09/22 06:45:10;;;;;;;0.77;0.77;;;;;;;;;;5136895;27;20441;-62
2023/09/22 06:47:38;;;;;;;0.90;0.90;;;;;;;;;;5136694;27;20438;-62
2023/09/22 06:50:09;;;;;;;0.80;0.80;;;;;;;;;;5136902;27;20504;-62
2023/09/22 06:52:36;;;;;;;0.70;0.70;;;;;;;;;;5137315;27;20431;-62
2023/09/22 06:55:07;;;;;;;0.70;0.70;;;;;;;;;;5136372;27;20450;-62
2023/09/22 06:57:36;;;;;;;0.80;0.80;;;;;;;;;;5136537;27;20426;-62
2023/09/22 07:00:09;;;;;;;0.70;0.70;;;;;;;;;;5136539;27;20837;-62
2023/09/22 07:02:36;;;;;;;0.70;0.70;;;;;;;;;;5136646;27;20425;-62
2023/09/22 07:05:05;;;;;;;0.80;0.80;;;;;;;;;;5136262;27;20445;-62
2023/09/22 07:07:33;;;;;;;0.80;0.80;;;;;;;;;;5136824;27;20494;-62
2023/09/22 07:10:01;;;;;;;0.70;0.70;;;;;;;;;;5136762;27;20800;-62
2023/09/22 07:12:29;;;;;;;0.77;0.77;;;;;;;;;;5136121;27;20448;-62
2023/09/22 07:14:57;;;;;;;0.90;0.90;;;;;;;;;;5136695;27;20440;-62
2023/09/22 07:17:24;;;;;;;0.80;0.80;;;;;;;;;;5136380;27;20488;-62
2023/09/22 07:19:52;;;;;;;0.80;0.80;;;;;;;;;;5136236;27;20487;-62
2023/09/22 07:22:19;;;;;;;0.70;0.70;;;;;;;;;;5135965;27;20452;-62
2023/09/22 07:24:48;;;;;;;0.70;0.70;;;;;;;;;;5136110;27;20559;-62
2023/09/22 07:27:15;;;;;;;0.80;0.80;;;;;;;;;;5135931;27;20449;-62
2023/09/22 07:29:43;;;;;;;0.70;0.70;;;;;;;;;;5136806;27;20440;-62
2023/09/22 07:32:10;;;;;;;0.70;0.70;;;;;;;;;;5135802;27;20921;-62
2023/09/22 07:34:37;;;;;;;1.10;1.10;;;;;;;;;;5136053;27;20543;-62
2023/09/22 07:37:05;;;;;;;0.70;0.70;;;;;;;;;;5135535;27;20564;-62
2023/09/22 07:39:32;;;;;;;0.70;0.70;;;;;;;;;;5136128;27;20905;-62
2023/09/22 07:42:02;;;;;;;0.80;0.80;;;;;;;;;;5135531;27;20445;-62
2023/09/22 07:44:30;;;;;;;0.80;0.80;;;;;;;;;;5135916;27;20958;-62
2023/09/22 07:47:00;;;;;;;0.80;0.80;;;;;;;;;;5135730;27;20440;-62
2023/09/22 07:49:27;;;;;;;0.80;0.80;;;;;;;;;;5135478;27;20501;-62
2023/09/22 07:51:55;;;;;;;0.80;0.80;;;;;;;;;;5135373;27;20443;-62
2023/09/22 07:54:23;;;;;;;0.80;0.80;;;;;;;;;;5136141;27;20515;-62
2023/09/22 07:56:50;;;;;;;0.73;0.73;;;;;;;;;;5135869;27;20841;-62
2023/09/22 07:59:19;;;;;;;0.70;0.70;;;;;;;;;;5135283;27;20562;-62
2023/09/22 08:01:46;;;;;;;0.70;0.70;;;;;;;;;;5135424;27;20811;-62
2023/09/22 08:04:13;;;;;;;0.70;0.70;;;;;;;;;;5135267;27;20463;-62
2023/09/22 08:06:41;;;;;;;0.70;0.70;;;;;;;;;;5135417;27;20489;-62
2023/09/22 08:09:08;;;;;;;0.80;0.80;;;;;;;;;;5135569;27;20525;-62
2023/09/22 08:11:35;;;;;;;0.73;0.73;;;;;;;;;;5134986;27;20441;-62
2023/09/22 08:14:02;;;;;;;0.70;0.70;;;;;;;;;;5135539;27;20532;-62
2023/09/22 08:16:31;;;;;;;0.70;0.70;;;;;;;;;;5135226;27;20486;-62
2023/09/22 08:18:58;;;;;;;0.80;0.80;;;;;;;;;;5134024;27;20484;-62
2023/09/22 08:21:26;;;;;;;0.70;0.70;;;;;;;;;;5134727;27;20941;-62
2023/09/22 08:23:53;;;;;;;0.80;0.80;;;;;;;;;;5134887;27;20469;-62
2023/09/22 08:26:20;;;;;;;0.70;0.70;;;;;;;;;;5135134;27;20466;-62
2023/09/22 08:28:47;;;;;;;0.70;0.70;;;;;;;;;;5134894;27;20434;-62
2023/09/22 08:31:15;;;;;;;0.70;0.70;;;;;;;;;;5134398;27;20443;-62
2023/09/22 08:33:44;;;;;;;0.80;0.80;;;;;;;;;;5135329;27;20518;-62
2023/09/22 08:36:11;;;;;;;0.80;0.80;;;;;;;;;;5134442;27;20469;-62
2023/09/22 08:38:38;;;;;;;0.80;0.80;;;;;;;;;;5134498;27;20440;-62
2023/09/22 08:41:06;;;;;;;0.80;0.80;;;;;;;;;;5134753;27;20524;-62
2023/09/22 08:43:35;;;;;;;0.70;0.70;;;;;;;;;;5134618;27;20508;-62
2023/09/22 08:46:02;;;;;;;0.70;0.70;;;;;;;;;;5134407;27;20778;-62
2023/09/22 08:48:30;;;;;;;0.80;0.80;;;;;;;;;;5134513;27;20535;-62
2023/09/22 08:50:59;;;;;;;0.70;0.70;;;;;;;;;;5134593;27;20433;-62
2023/09/22 08:53:26;;;;;;;0.80;0.80;;;;;;;;;;5134274;27;20529;-62
2023/09/22 08:55:53;;;;;;;0.70;0.70;;;;;;;;;;5134878;27;20526;-62
2023/09/22 08:58:21;;;;;;;0.70;0.70;;;;;;;;;;5134410;27;20498;-63
2023/09/22 09:00:48;;;;;;;0.70;0.70;;;;;;;;;;5134291;27;20492;-62
2023/09/22 09:03:17;;;;;;;0.70;0.70;;;;;;;;;;5134256;27;20437;-62
2023/09/22 09:05:44;;;;;;;0.70;0.70;;;;;;;;;;5134023;27;20936;-62
2023/09/22 09:08:14;;;;;;;0.70;0.70;;;;;;;;;;5134131;27;20446;-61
2023/09/22 09:10:42;;;;;;;0.80;0.80;;;;;;;;;;5134370;27;20534;-62
2023/09/22 09:13:13;;;;;;;0.80;0.80;;;;;;;;;;5134187;27;20443;-62
2023/09/22 09:15:45;;;;;;;0.80;0.80;;;;;;;;;;5134901;27;20439;-62
2023/09/22 09:18:12;;;;;;;0.70;0.70;;;;;;;;;;5133988;27;20517;-62
2023/09/22 09:20:41;;;;;;;0.70;0.70;;;;;;;;;;5134136;27;20440;-62
2023/09/22 09:23:13;;;;;;;0.80;0.80;;;;;;;;;;5134013;27;20444;-62
2023/09/22 09:25:41;;;;;;;0.70;0.70;;;;;;;;;;5133607;27;20548;-62
2023/09/22 09:28:09;;;;;;;0.70;0.70;;;;;;;;;;5133982;27;20454;-62
2023/09/22 09:30:36;;;;;;;0.70;0.70;;;;;;;;;;5134219;27;20528;-62
2023/09/22 09:33:09;;;;;;;0.70;0.70;;;;;;;;;;5133670;28;20473;-62
2023/09/22 09:35:37;;;;;;;0.80;0.80;;;;;;;;;;5134170;28;20778;-62
2023/09/22 09:38:04;;;;;;;0.70;0.70;;;;;;;;;;5133666;28;20988;-62
2023/09/22 09:40:36;;;;;;;0.70;0.70;;;;;;;;;;5133963;28;20441;-62
2023/09/22 09:43:05;;;;;;;0.80;0.80;;;;;;;;;;5135081;27;20439;-62
2023/09/22 09:45:35;;;;;;;0.80;0.80;;;;;;;;;;5138641;27;20873;-62
2023/09/22 09:48:09;;;;;;;0.80;0.80;;;;;;;;;;5137616;27;20447;-61
2023/09/22 09:50:37;;;;;;;0.80;0.80;;;;;;;;;;5137837;27;20457;-61
2023/09/22 09:53:07;;;;;;;0.80;0.80;;;;;;;;;;5138268;27;20440;-62
2023/09/22 09:55:36;;;;;;;0.70;0.70;;;;;;;;;;5138211;27;20504;-62
2023/09/22 09:58:04;;;;;;;0.70;0.70;;;;;;;;;;5137519;27;20476;-62
2023/09/22 10:00:35;;;;;;;0.80;0.80;;;;;;;;;;5137533;27;20882;-62
2023/09/22 10:03:03;;;;;;;0.80;0.80;;;;;;;;;;5137445;27;20425;-62
2023/09/22 10:05:32;;;;;;;0.70;0.70;;;;;;;;;;5137403;27;20927;-61
2023/09/22 10:08:00;;;;;;;0.70;0.70;;;;;;;;;;5137061;27;20448;-62
2023/09/22 10:10:28;;;;;;;0.70;0.70;;;;;;;;;;5137161;27;20535;-62
2023/09/22 10:12:57;;;;;;;0.80;0.80;;;;;;;;;;5137318;27;20436;-62
2023/09/22 10:15:57;;;;;;;0.70;0.70;;;;;;;;;;5137848;27;20438;-62
2023/09/22 10:18:45;;;;;;;0.80;0.80;;;;;;;;;;5033636;28;20469;-62
2023/09/22 10:21:27;;;;;;;0.70;0.70;;;;;;;;;;5033788;28;20449;-62
2023/09/22 10:24:09;;;;;;;0.70;0.70;;;;;;;;;;5105040;27;20916;-62
2023/09/22 10:26:36;;;;;;;0.70;0.70;;;;;;;;;;5136559;27;20523;-61
2023/09/22 10:29:30;;;;;;;0.70;0.70;;;;;;;;;;5136993;27;20532;-62
2023/09/22 10:32:12;;;;;;;0.70;0.70;;;;;;;;;;5137195;27;20532;-62
2023/09/22 10:34:47;;;;;;;0.70;0.70;;;;;;;;;;5136145;27;20463;-62
2023/09/22 10:37:14;;;;;;;0.70;0.70;;;;;;;;;;5137192;27;20456;-62
2023/09/22 10:39:54;;;;;;;0.70;0.70;;;;;;;;;;5136454;27;20949;-62
2023/09/22 10:42:22;;;;;;;0.70;0.70;;;;;;;;;;5136919;27;20526;-62
2023/09/22 10:44:58;;;;;;;0.70;0.70;;;;;;;;;;5136791;27;20508;-62
2023/09/22 10:47:27;;;;;;;0.77;0.77;;;;;;;;;;5136541;27;20433;-62
2023/09/22 10:49:55;;;;;;;0.70;0.70;;;;;;;;;;5136725;27;20520;-61
2023/09/22 10:52:22;;;;;;;0.70;0.70;;;;;;;;;;5136710;27;20436;-62
2023/09/22 10:54:49;;;;;;;0.70;0.70;;;;;;;;;;5135348;27;20449;-61
2023/09/22 10:57:27;;;;;;;0.70;0.70;;;;;;;;;;5136674;27;20521;-61
2023/09/22 10:59:56;;;;;;;0.70;0.70;;;;;;;;;;5136393;27;20948;-61
2023/09/22 11:02:26;;;;;;;0.70;0.70;;;;;;;;;;5136364;27;20435;-62
2023/09/22 11:04:55;;;;;;;0.70;0.70;;;;;;;;;;5136735;27;20425;-61
2023/09/22 11:07:32;;;;;;;0.70;0.70;;;;;;;;;;5136500;27;20453;-61
2023/09/22 11:09:59;;;;;;;1.00;1.00;;;;;;;;;;5136406;27;20445;-62
2023/09/22 11:12:27;;;;;;;0.70;0.70;;;;;;;;;;5136255;27;20582;-61
2023/09/22 11:14:54;;;;;;;0.80;0.80;;;;;;;;;;5136378;27;20513;-61
2023/09/22 11:17:21;;;;;;;0.80;0.80;;;;;;;;;;5136224;27;20578;-61
2023/09/22 11:19:54;;;;;;;0.70;0.70;;;;;;;;;;5136068;27;20442;-61
2023/09/22 11:22:23;;;;;;;0.70;0.70;;;;;;;;;;5136414;27;20429;-61
2023/09/22 11:24:50;;;;;;;0.70;0.70;;;;;;;;;;5135542;27;20803;-60
2023/09/22 11:27:17;;;;;;;0.70;0.70;;;;;;;;;;5136169;27;20862;-61
2023/09/22 11:29:45;;;;;;;0.70;0.70;;;;;;;;;;5135911;27;20434;-67
2023/09/22 11:32:12;;;;;;;0.70;0.70;;;;;;;;;;5132505;27;20468;-63
2023/09/22 11:34:47;;;;;;;0.70;0.70;;;;;;;;;;5113587;28;20442;-61
2023/09/22 11:37:15;;;;;;;0.70;0.70;;;;;;;;;;5114514;28;20481;-61
2023/09/22 11:39:43;;;;;;;0.70;0.70;;;;;;;;;;5115176;28;20460;-65
2023/09/22 11:42:10;;;;;;;0.70;0.70;;;;;;;;;;5115295;28;20454;-62
2023/09/22 11:44:37;;;;;;;0.70;0.70;;;;;;;;;;5115001;28;20518;-61
2023/09/22 11:47:08;;;;;;;0.70;0.70;;;;;;;;;;5119820;27;20480;-61
2023/09/22 11:49:37;;;;;;;0.70;0.70;;;;;;;;;;5133246;27;20512;-61
2023/09/22 11:52:04;;;;;;;0.70;0.70;;;;;;;;;;5133828;27;20440;-61
2023/09/22 11:54:34;;;;;;;0.70;0.70;;;;;;;;;;5133132;27;20446;-62
2023/09/22 11:57:03;;;;;;;0.70;0.70;;;;;;;;;;5133882;27;20448;-61
2023/09/22 11:59:31;;;;;;;1.13;1.03;;;;;;;;;;5134725;27;20442;-61
2023/09/22 12:02:00;;;;;;;0.70;0.70;;;;;;;;;;5133907;27;20436;-61
2023/09/22 12:04:28;;;;;;;0.70;0.70;;;;;;;;;;5134451;27;20443;-61
2023/09/22 12:06:56;;;;;;;0.70;0.70;;;;;;;;;;5133383;27;21026;-62
2023/09/22 12:09:23;;;;;;;0.70;0.70;;;;;;;;;;5134804;27;20437;-62
2023/09/22 12:11:52;;;;;;;0.70;0.70;;;;;;;;;;5134107;27;20443;-62
2023/09/22 12:14:19;;;;;;;0.70;0.70;;;;;;;;;;5134388;27;20985;-62
2023/09/22 12:16:47;;;;;;;0.80;0.80;;;;;;;;;;5135088;27;20524;-63
2023/09/22 12:19:15;;;;;;;0.70;0.70;;;;;;;;;;5134173;27;20488;-62
2023/09/22 12:21:42;;;;;;;0.70;0.70;;;;;;;;;;5133714;27;20445;-62
2023/09/22 12:24:09;;;;;;;0.70;0.70;;;;;;;;;;5130946;27;21081;-62
2023/09/22 12:26:36;;;;;;;0.70;0.70;;;;;;;;;;5114088;28;20522;-62
2023/09/22 12:29:05;;;;;;;0.70;0.70;;;;;;;;;;5114510;28;20512;-62
2023/09/22 12:31:33;;;;;;;0.80;0.80;;;;;;;;;;5113252;28;20441;-62
2023/09/22 12:34:00;;;;;;;0.70;0.70;;;;;;;;;;5113745;28;20628;-62
2023/09/22 12:36:29;;;;;;;0.70;0.70;;;;;;;;;;5113460;28;20442;-62
2023/09/22 12:38:57;;;;;;;0.70;0.70;;;;;;;;;;5113174;28;20485;-62
2023/09/22 12:41:24;;;;;;;0.70;0.70;;;;;;;;;;5112703;28;20499;-62
2023/09/22 12:43:51;;;;;;;0.70;0.70;;;;;;;;;;5113154;28;20844;-62
2023/09/22 12:46:20;;;;;;;0.70;0.70;;;;;;;;;;5112921;28;20441;-62
2023/09/22 12:48:47;;;;;;;0.70;0.70;;;;;;;;;;5107717;28;20464;-62
2023/09/22 12:51:14;;;;;;;0.70;0.70;;;;;;;;;;5093007;28;20522;-62
2023/09/22 12:53:41;;;;;;;0.70;0.70;;;;;;;;;;5092726;28;20546;-62
2023/09/22 12:56:09;;;;;;;0.70;0.70;;;;;;;;;;5092934;28;20470;-62
2023/09/22 12:58:37;;;;;;;0.70;0.70;;;;;;;;;;5093127;28;20478;-62
2023/09/22 13:01:04;;;;;;;0.70;0.70;;;;;;;;;;5092725;28;20443;-63
2023/09/22 13:03:33;;;;;;;0.70;0.70;;;;;;;;;;5093108;28;20534;-62
2023/09/22 13:06:02;;;;;;;0.70;0.70;;;;;;;;;;5092857;28;20445;-63
2023/09/22 13:08:30;;;;;;;0.70;0.70;;;;;;;;;;5093712;28;20814;-63
2023/09/22 13:10:57;;;;;;;0.70;0.70;;;;;;;;;;5093238;28;20778;-62
2023/09/22 13:13:25;;;;;;;0.70;0.70;;;;;;;;;;5093172;28;20439;-62
2023/09/22 13:15:52;;;;;;;0.70;0.70;;;;;;;;;;5092637;28;20556;-62
2023/09/22 13:18:20;;;;;;;0.70;0.70;;;;;;;;;;5092708;28;20494;-62
2023/09/22 13:20:48;;;;;;;0.70;0.70;;;;;;;;;;5092401;28;20440;-62
2023/09/22 13:23:15;;;;;;;0.70;0.70;;;;;;;;;;5092587;28;20537;-62
2023/09/22 13:25:44;;;;;;;0.70;0.70;;;;;;;;;;5109007;28;20808;-62
2023/09/22 13:28:12;;;;;;;0.70;0.70;;;;;;;;;;5113111;28;20454;-63
2023/09/22 13:30:42;;;;;;;0.70;0.70;;;;;;;;;;5113406;28;20435;-62
2023/09/22 13:33:10;;;;;;;0.70;0.70;;;;;;;;;;5113041;28;20423;-63
2023/09/22 13:35:38;;;;;;;0.70;0.70;;;;;;;;;;5112897;28;20822;-63
2023/09/22 13:38:07;;;;;;;0.70;0.70;;;;;;;;;;5112825;28;21053;-63
2023/09/22 13:40:34;;;;;;;0.70;0.70;;;;;;;;;;5113469;28;20457;-63
2023/09/22 13:43:01;;;;;;;0.70;0.70;;;;;;;;;;5112781;28;20491;-63
2023/09/22 13:45:33;;;;;;;0.70;0.70;;;;;;;;;;5113015;28;20438;-63
2023/09/22 13:48:00;;;;;;;0.70;0.70;;;;;;;;;;5112668;28;20425;-63
2023/09/22 13:50:27;;;;;;;0.70;0.70;;;;;;;;;;5113106;28;20837;-63
2023/09/22 13:52:55;;;;;;;0.70;0.70;;;;;;;;;;5113159;28;20454;-65
2023/09/22 13:55:23;;;;;;;0.90;0.90;;;;;;;;;;5112856;28;20617;-61
2023/09/22 13:57:50;;;;;;;0.70;0.70;;;;;;;;;;5112876;28;20482;-63
2023/09/22 14:00:18;;;;;;;0.70;0.70;;;;;;;;;;5112578;28;20439;-63
2023/09/22 14:02:45;;;;;;;0.80;0.80;;;;;;;;;;5112834;28;20438;-63
2023/09/22 14:05:13;;;;;;;0.70;0.70;;;;;;;;;;5112811;28;20474;-63
2023/09/22 14:07:40;;;;;;;0.70;0.70;;;;;;;;;;5111904;28;20460;-63
2023/09/22 14:10:08;;;;;;;0.70;0.70;;;;;;;;;;5112999;28;20469;-61
2023/09/22 14:12:37;;;;;;;0.70;0.70;;;;;;;;;;5113178;28;20440;-61
2023/09/22 14:15:06;;;;;;;0.70;0.70;;;;;;;;;;5112476;28;20477;-65
2023/09/22 14:17:33;;;;;;;0.70;0.70;;;;;;;;;;5113050;28;20427;-66
2023/09/22 14:20:01;;;;;;;0.70;0.70;;;;;;;;;;5112255;28;20439;-66
2023/09/22 14:22:28;;;;;;;0.70;0.70;;;;;;;;;;5112690;28;20521;-64
2023/09/22 14:24:57;;;;;;;0.70;0.70;;;;;;;;;;5112827;28;21152;-64
2023/09/22 14:27:24;;;;;;;0.70;0.70;;;;;;;;;;5111243;28;20447;-63
2023/09/22 14:29:53;;;;;;;0.70;0.70;;;;;;;;;;5112997;28;20826;-62
2023/09/22 14:32:20;;;;;;;0.70;0.70;;;;;;;;;;5116792;28;20537;-64
2023/09/22 14:34:47;;;;;;;0.70;0.70;;;;;;;;;;5116585;28;20435;-63
2023/09/22 14:37:14;;;;;;;0.70;0.70;;;;;;;;;;5116162;28;20798;-69
2023/09/22 14:39:42;;;;;;;0.70;0.70;;;;;;;;;;5116173;28;20569;-67
2023/09/22 14:42:09;;;;;;;0.70;0.70;;;;;;;;;;5116181;28;20439;-66
2023/09/22 14:44:36;;;;;;;0.70;0.70;;;;;;;;;;5116820;28;20446;-71
2023/09/22 14:47:05;;;;;;;0.70;0.70;;;;;;;;;;5114909;28;20434;-64
2023/09/22 14:49:32;;;;;;;0.80;0.80;;;;;;;;;;5115373;28;20443;-65